Time;durP1;ratioP1;P1;durP2;ratioP2;P2;SDS_P1;SDS_P2;PMS_P1;PMS_P2;Temp;Humidity;BMP_temperature;BMP_pressure;BME280_temperature;BME280_humidity;BME280_pressure;Samples;Min_cycle;Max_cycle;Signal;HPM_P1;HPM_P2
2023/07/20 00:00:53;;;;;;;4.17;2.70;;;;;;;18.15;100.00;99878.97;5037498;28;20611;-77
2023/07/20 00:03:24;;;;;;;3.90;3.00;;;;;;;18.05;100.00;99868.56;5045471;28;20593;-75
2023/07/20 00:05:50;;;;;;;3.80;3.00;;;;;;;18.02;100.00;99874.88;5048012;28;20185;-71
2023/07/20 00:08:17;;;;;;;6.07;2.87;;;;;;;18.02;100.00;99868.84;5062387;28;20205;-73
2023/07/20 00:10:43;;;;;;;6.67;2.93;;;;;;;17.95;100.00;99871.19;5046905;28;20224;-72
2023/07/20 00:13:09;;;;;;;4.03;2.60;;;;;;;17.95;100.00;99871.19;5048922;28;20236;-73
2023/07/20 00:15:35;;;;;;;4.23;3.00;;;;;;;17.93;100.00;99880.03;5050037;28;20216;-73
2023/07/20 00:18:01;;;;;;;5.13;2.87;;;;;;;17.91;100.00;99878.41;5050341;28;20178;-73
2023/07/20 00:20:26;;;;;;;3.23;2.30;;;;;;;17.84;100.00;99879.09;5044486;28;20224;-73
2023/07/20 00:22:51;;;;;;;4.17;2.50;;;;;;;17.81;100.00;99879.34;5062474;28;20188;-73
2023/07/20 00:25:17;;;;;;;6.87;2.90;;;;;;;17.73;100.00;99877.44;5049839;28;20584;-73
2023/07/20 00:27:43;;;;;;;6.87;2.87;;;;;;;17.64;100.00;99868.66;5051269;28;20650;-72
2023/07/20 00:30:08;;;;;;;4.90;2.33;;;;;;;17.50;100.00;99872.47;5041208;28;20181;-74
2023/07/20 00:32:34;;;;;;;6.03;2.40;;;;;;;17.38;100.00;99876.97;5048142;28;20181;-71
2023/07/20 00:34:59;;;;;;;4.47;2.63;;;;;;;17.37;100.00;99877.09;5050185;28;20178;-72
2023/07/20 00:37:24;;;;;;;7.40;3.00;;;;;;;17.29;100.00;99882.13;5051760;28;20185;-72
2023/07/20 00:39:51;;;;;;;3.90;2.40;;;;;;;17.23;100.00;99888.69;5051545;28;20190;-71
2023/07/20 00:42:16;;;;;;;3.80;2.57;;;;;;;17.12;100.00;99891.38;5038056;28;20224;-71
2023/07/20 00:44:41;;;;;;;4.03;2.30;;;;;;;16.96;100.00;99890.09;5049865;28;20763;-71
2023/07/20 00:47:06;;;;;;;7.37;2.90;;;;;;;16.94;100.00;99892.81;5051117;28;20196;-71
2023/07/20 00:49:32;;;;;;;8.57;3.07;;;;;;;17.00;100.00;99893.25;5051777;28;20219;-71
2023/07/20 00:51:59;;;;;;;5.50;3.27;;;;;;;16.92;100.00;99894.72;5054307;28;20228;-70
2023/07/20 00:54:25;;;;;;;3.80;2.50;;;;;;;16.87;100.00;99899.44;5050949;28;20177;-71
2023/07/20 00:56:53;;;;;;;5.17;2.90;;;;;;;16.87;100.00;99899.44;5049657;28;20204;-72
2023/07/20 00:59:18;;;;;;;5.60;3.00;;;;;;;16.91;100.00;99894.81;5051444;28;20193;-71
2023/07/20 01:01:43;;;;;;;4.00;2.87;;;;;;;16.88;100.00;99900.25;5036981;28;20283;-71
2023/07/20 01:04:08;;;;;;;4.40;2.50;;;;;;;16.84;100.00;99894.50;5046453;28;20181;-72
2023/07/20 01:06:57;;;;;;;5.97;3.00;;;;;;;16.73;100.00;99886.78;5049548;28;20228;-71
2023/07/20 01:10:00;;;;;;;3.60;2.70;;;;;;;16.70;100.00;99893.06;5049624;28;20181;-71
2023/07/20 01:12:42;;;;;;;7.27;2.53;;;;;;;16.63;100.00;99891.94;5032292;28;20247;-71
2023/07/20 01:15:08;;;;;;;6.83;3.00;;;;;;;16.71;100.00;99891.31;5029440;28;20198;-71
2023/07/20 01:17:35;;;;;;;5.73;2.67;;;;;;;16.69;100.00;99888.81;5046539;28;20220;-71
2023/07/20 01:20:00;;;;;;;5.30;2.47;;;;;;;16.64;100.00;99893.59;5051018;28;20177;-71
2023/07/20 01:22:47;;;;;;;4.87;2.43;;;;;;;16.52;100.00;99895.44;5039364;28;20229;-71
2023/07/20 01:25:41;;;;;;;3.23;2.77;;;;;;;16.48;100.00;99893.22;5053864;28;20184;-71
2023/07/20 01:28:41;;;;;;;4.43;2.93;;;;;;;16.48;100.00;99895.81;5041564;28;20173;-74
2023/07/20 01:31:27;;;;;;;4.70;2.47;;;;;;;16.38;100.00;99891.38;5031344;28;20235;-71
2023/07/20 01:33:56;;;;;;;4.20;2.20;;;;;;;16.45;100.00;99891.69;5039241;28;20542;-71
2023/07/20 01:36:23;;;;;;;5.77;2.93;;;;;;;16.49;100.00;99890.50;5048817;28;20190;-71
2023/07/20 01:38:49;;;;;;;4.17;2.40;;;;;;;16.47;100.00;99897.56;5049225;28;20535;-72
2023/07/20 01:41:15;;;;;;;6.80;2.90;;;;;;;16.40;100.00;99897.25;5042315;28;20244;-72
2023/07/20 01:43:40;;;;;;;4.60;2.30;;;;;;;16.37;100.00;99894.94;5056707;28;20234;-72
2023/07/20 01:46:06;;;;;;;3.70;2.40;;;;;;;16.41;100.00;99890.28;5051098;28;20284;-72
2023/07/20 01:48:31;;;;;;;4.13;2.60;;;;;;;16.33;100.00;99883.13;5054277;28;20174;-72
2023/07/20 01:50:56;;;;;;;3.63;2.37;;;;;;;16.34;100.00;99883.97;5045568;28;20283;-71
2023/07/20 01:53:23;;;;;;;6.10;2.70;;;;;;;16.16;100.00;99881.09;5062704;28;20539;-71
2023/07/20 01:55:49;;;;;;;3.67;2.33;;;;;;;16.29;100.00;99884.34;5052414;28;20213;-71
2023/07/20 01:58:14;;;;;;;6.33;3.00;;;;;;;16.21;100.00;99881.56;5054111;28;20177;-71
2023/07/20 02:00:39;;;;;;;4.10;2.80;;;;;;;16.10;100.00;99883.25;5048579;28;20668;-71
2023/07/20 02:03:05;;;;;;;4.33;2.73;;;;;;;15.98;100.00;99877.28;5052839;28;20258;-72
2023/07/20 02:05:30;;;;;;;4.10;2.83;;;;;;;16.03;100.00;99882.09;5053768;28;20264;-71
2023/07/20 02:07:56;;;;;;;4.40;2.67;;;;;;;15.88;100.00;99878.16;5053771;28;20291;-71
2023/07/20 02:10:21;;;;;;;5.90;2.83;;;;;;;15.84;100.00;99882.78;5046445;28;20277;-72
2023/07/20 02:12:47;;;;;;;3.50;2.47;;;;;;;15.85;100.00;99881.00;5066534;28;20229;-71
2023/07/20 02:15:13;;;;;;;3.70;2.70;;;;;;;15.94;100.00;99888.88;5053627;28;20228;-71
2023/07/20 02:17:40;;;;;;;5.97;2.70;;;;;;;15.87;100.00;99884.28;5053831;28;20573;-71
2023/07/20 02:20:09;;;;;;;8.03;3.07;;;;;;;15.91;100.00;99883.09;5042849;28;20185;-71
2023/07/20 02:22:34;;;;;;;6.40;2.93;;;;;;;15.81;100.00;99877.78;5050809;28;20174;-71
2023/07/20 02:24:59;;;;;;;6.67;3.87;;;;;;;15.74;100.00;99889.59;5053772;28;20656;-71
2023/07/20 02:27:24;;;;;;;5.17;3.13;;;;;;;15.81;100.00;99890.75;5052452;28;20189;-70
2023/07/20 02:29:50;;;;;;;2.90;2.47;;;;;;;15.79;100.00;99890.88;5053901;28;20173;-71
2023/07/20 02:32:15;;;;;;;4.60;2.83;;;;;;;15.69;100.00;99887.38;5055937;28;20696;-71
2023/07/20 02:34:41;;;;;;;5.97;3.27;;;;;;;15.70;100.00;99894.19;5053202;28;20256;-71
2023/07/20 02:37:06;;;;;;;3.03;2.47;;;;;;;15.65;100.00;99896.34;5053046;28;20275;-71
2023/07/20 02:39:31;;;;;;;4.53;2.67;;;;;;;15.55;100.00;99887.66;5053823;28;20288;-71
2023/07/20 02:41:56;;;;;;;3.63;2.60;;;;;;;15.60;100.00;99898.47;5044496;28;20252;-72
2023/07/20 02:44:22;;;;;;;4.67;2.43;;;;;;;15.53;100.00;99892.97;5043150;28;20181;-72
2023/07/20 02:46:49;;;;;;;3.70;2.53;;;;;;;15.51;100.00;99894.03;5051872;28;20177;-72
2023/07/20 02:49:15;;;;;;;3.53;2.70;;;;;;;15.42;100.00;99891.19;5052087;28;20256;-70
2023/07/20 02:51:40;;;;;;;4.17;2.90;;;;;;;15.43;100.00;99887.66;5043032;28;20244;-71
2023/07/20 02:54:05;;;;;;;7.30;2.53;;;;;;;15.43;100.00;99881.66;5055974;28;20557;-72
2023/07/20 02:56:30;;;;;;;3.70;3.03;;;;;;;15.48;100.00;99884.72;5052388;28;20209;-71
2023/07/20 02:58:57;;;;;;;4.07;2.50;;;;;;;15.41;100.00;99892.13;5053156;28;20637;-71
2023/07/20 03:01:22;;;;;;;4.07;2.57;;;;;;;15.47;100.00;99888.25;5040444;28;20667;-71
2023/07/20 03:03:48;;;;;;;6.93;3.13;;;;;;;15.45;100.00;99890.13;5040158;28;20180;-71
2023/07/20 03:06:14;;;;;;;5.30;2.70;;;;;;;15.41;100.00;99888.75;5052168;28;20192;-72
2023/07/20 03:08:41;;;;;;;5.07;2.90;;;;;;;15.32;100.00;99891.09;5051878;28;20213;-72
2023/07/20 03:11:06;;;;;;;5.80;2.77;;;;;;;15.38;100.00;99891.56;5043912;28;20616;-71
2023/07/20 03:13:31;;;;;;;6.70;2.63;;;;;;;15.38;100.00;99891.56;5051452;28;20221;-71
2023/07/20 03:15:57;;;;;;;5.47;2.60;;;;;;;15.29;100.00;99891.34;5048815;28;20240;-72
2023/07/20 03:18:22;;;;;;;4.23;2.90;;;;;;;15.30;100.00;99879.19;5061012;28;20184;-72
2023/07/20 03:20:48;;;;;;;6.67;2.70;;;;;;;15.30;100.00;99882.59;5047561;28;20274;-71
2023/07/20 03:23:14;;;;;;;5.50;2.80;;;;;;;15.33;100.00;99886.72;5051571;28;20280;-72
2023/07/20 03:25:40;;;;;;;4.70;2.87;;;;;;;15.30;100.00;99886.97;5050751;28;20181;-72
2023/07/20 03:28:05;;;;;;;4.50;3.17;;;;;;;15.30;100.00;99885.19;5052729;28;20231;-72
2023/07/20 03:30:31;;;;;;;6.17;2.80;;;;;;;15.22;100.00;99884.16;5022935;28;20733;-72
2023/07/20 03:32:56;;;;;;;4.37;2.40;;;;;;;15.33;100.00;99894.50;5050532;28;20181;-71
2023/07/20 03:35:22;;;;;;;5.80;2.90;;;;;;;15.29;100.00;99893.94;5051671;28;20276;-72
2023/07/20 03:37:47;;;;;;;4.00;2.60;;;;;;;15.24;100.00;99900.41;5052451;28;20181;-71
2023/07/20 03:40:14;;;;;;;3.97;2.93;;;;;;;15.19;100.00;99895.56;5043280;28;20194;-70
2023/07/20 03:42:39;;;;;;;8.73;3.30;;;;;;;15.15;100.00;99894.97;5065882;28;20204;-71
2023/07/20 03:45:06;;;;;;;7.10;2.27;;;;;;;15.26;100.00;99899.34;5051755;28;20186;-70
2023/07/20 03:47:31;;;;;;;5.27;2.43;;;;;;;15.16;100.00;99901.00;5051079;28;20174;-70
2023/07/20 03:49:56;;;;;;;3.90;2.70;;;;;;;15.31;100.00;99905.00;5051997;28;20541;-70
2023/07/20 03:52:22;;;;;;;4.87;2.73;;;;;;;15.32;100.00;99906.63;5049415;28;20276;-70
2023/07/20 03:54:47;;;;;;;6.57;2.83;;;;;;;15.39;100.00;99906.16;5046322;28;20625;-70
2023/07/20 03:57:12;;;;;;;5.63;2.70;;;;;;;15.43;100.00;99903.22;5050808;28;20233;-69
2023/07/20 03:59:39;;;;;;;7.10;3.10;;;;;;;15.36;100.00;99912.41;5052255;28;20192;-70
2023/07/20 04:02:05;;;;;;;5.53;2.80;;;;;;;15.36;100.00;99915.00;5035744;28;20229;-70
2023/07/20 04:04:31;;;;;;;5.13;2.90;;;;;;;15.34;100.00;99911.69;5045668;28;20327;-69
2023/07/20 04:06:56;;;;;;;4.27;2.40;;;;;;;15.27;100.00;99906.19;5051923;28;20220;-70
2023/07/20 04:09:21;;;;;;;5.27;2.97;;;;;;;15.27;100.00;99911.38;5050935;28;20268;-71
2023/07/20 04:11:46;;;;;;;4.67;2.80;;;;;;;15.26;100.00;99919.25;5055366;28;20289;-72
2023/07/20 04:14:12;;;;;;;3.20;2.23;;;;;;;15.32;100.00;99919.59;5049761;28;20232;-72
2023/07/20 04:16:37;;;;;;;3.13;2.33;;;;;;;15.31;100.00;99917.94;5051567;28;20201;-59
2023/07/20 04:19:02;;;;;;;6.70;2.83;;;;;;;15.42;100.00;99914.53;5046435;28;20189;-59
2023/07/20 04:21:28;;;;;;;4.57;2.43;;;;;;;15.57;100.00;99911.69;5047853;28;20248;-59
2023/07/20 04:23:53;;;;;;;4.33;2.93;;;;;;;15.68;100.00;99908.22;5051428;28;20189;-60
2023/07/20 04:26:18;;;;;;;5.33;2.53;;;;;;;15.79;100.00;99909.03;5050990;28;20189;-59
2023/07/20 04:28:43;;;;;;;4.90;2.63;;;;;;;15.90;100.00;99918.59;5051515;28;20505;-60
2023/07/20 04:31:13;;;;;;;4.27;2.83;;;;;;;15.96;100.00;99920.69;5043414;28;20229;-59
2023/07/20 04:33:39;;;;;;;7.03;2.90;;;;;;;16.10;100.00;99916.16;5054996;28;20181;-59
2023/07/20 04:36:04;;;;;;;9.97;2.60;;;;;;;16.21;100.00;99916.13;5051080;28;20223;-59
2023/07/20 04:38:30;;;;;;;3.23;2.40;;;;;;;16.34;100.00;99920.31;5050904;28;20647;-59
2023/07/20 04:40:55;;;;;;;4.53;2.60;;;;;;;16.45;100.00;99920.25;5048060;28;20229;-59
2023/07/20 04:43:20;;;;;;;9.47;2.60;;;;;;;16.62;100.00;99918.84;5047743;28;20625;-61
2023/07/20 04:45:46;;;;;;;4.87;2.60;;;;;;;16.71;100.00;99922.47;5044071;28;20206;-59
2023/07/20 04:48:13;;;;;;;4.10;2.70;;;;;;;16.82;100.00;99922.41;5051048;28;20270;-60
2023/07/20 04:50:40;;;;;;;6.73;2.67;;;;;;;16.94;100.00;99930.94;5045820;28;20220;-60
2023/07/20 04:53:05;;;;;;;3.70;2.60;;;;;;;17.02;100.00;99930.34;5056889;28;20191;-60
2023/07/20 04:55:33;;;;;;;6.63;2.70;;;;;;;17.19;100.00;99931.47;5050787;28;20193;-60
2023/07/20 04:57:59;;;;;;;5.03;2.67;;;;;;;17.26;100.00;99924.81;5050814;28;20272;-60
2023/07/20 05:00:24;;;;;;;6.00;2.83;;;;;;;17.35;100.00;99931.84;5043623;28;20680;-60
2023/07/20 05:02:50;;;;;;;4.53;2.60;;;;;;;17.34;100.00;99930.19;5058514;28;20205;-61
2023/07/20 05:05:15;;;;;;;3.67;2.40;;;;;;;17.25;100.00;99937.00;5050765;28;20629;-61
2023/07/20 05:07:41;;;;;;;5.67;2.40;;;;;;;17.39;100.00;99929.75;5051040;28;20211;-60
2023/07/20 05:10:07;;;;;;;3.13;2.60;;;;;;;17.39;100.00;99929.75;5039581;28;20181;-60
2023/07/20 05:12:32;;;;;;;5.80;2.90;;;;;;;17.55;100.00;99939.66;5064717;28;20209;-60
2023/07/20 05:14:57;;;;;;;4.47;2.97;;;;;;;17.75;100.00;99925.75;5050529;28;20288;-59
2023/07/20 05:17:23;;;;;;;4.23;2.80;;;;;;;17.86;100.00;99934.38;5050853;28;20201;-60
2023/07/20 05:19:48;;;;;;;4.83;2.53;;;;;;;17.87;100.00;99928.22;5051228;28;20181;-60
2023/07/20 05:22:14;;;;;;;4.57;2.73;;;;;;;17.94;100.00;99929.38;5059219;28;20225;-62
2023/07/20 05:24:39;;;;;;;5.73;2.83;;;;;;;18.09;100.00;99932.41;5054141;28;20185;-61
2023/07/20 05:27:05;;;;;;;5.53;2.77;;;;;;;18.18;100.00;99936.78;5054723;28;20209;-61
2023/07/20 05:29:30;;;;;;;3.83;2.60;;;;;;;18.30;100.00;99921.03;5054662;28;20181;-61
2023/07/20 05:31:55;;;;;;;6.87;3.20;;;;;;;18.36;100.00;99920.47;5058411;28;20216;-60
2023/07/20 05:34:21;;;;;;;4.77;2.30;;;;;;;18.34;100.00;99925.00;5054437;28;20642;-60
2023/07/20 05:36:46;;;;;;;4.13;2.60;;;;;;;18.60;100.00;99925.22;5054551;28;20205;-60
2023/07/20 05:39:11;;;;;;;4.97;2.43;;;;;;;18.60;100.00;99919.22;5054608;28;20235;-60
2023/07/20 05:41:37;;;;;;;6.77;2.63;;;;;;;18.86;100.00;99932.44;5056051;28;20232;-59
2023/07/20 05:44:02;;;;;;;3.47;2.20;;;;;;;18.94;100.00;99924.78;5056553;28;20238;-59
2023/07/20 05:46:27;;;;;;;3.17;2.20;;;;;;;19.13;100.00;99930.88;5054226;28;20173;-60
2023/07/20 05:48:52;;;;;;;3.13;2.37;;;;;;;19.09;100.00;99930.34;5054546;28;20285;-60
2023/07/20 05:51:18;;;;;;;5.77;2.20;;;;;;;19.13;100.00;99939.50;5047827;28;20723;-61
2023/07/20 05:53:43;;;;;;;2.97;2.13;;;;;;;19.32;100.00;99941.19;5053389;28;20213;-60
2023/07/20 05:56:10;;;;;;;4.73;2.10;;;;;;;19.29;100.00;99938.91;5053600;28;20209;-60
2023/07/20 05:58:35;;;;;;;5.33;2.43;;;;;;;19.53;100.00;99947.97;5054156;28;20187;-60
2023/07/20 06:01:02;;;;;;;6.07;2.63;;;;;;;19.42;100.00;99951.59;5044863;28;20236;-60
2023/07/20 06:03:28;;;;;;;5.03;2.30;;;;;;;19.46;100.00;99946.91;5060506;28;20187;-61
2023/07/20 06:06:02;;;;;;;3.57;1.97;;;;;;;19.53;100.00;99945.38;5053888;28;20186;-61
2023/07/20 06:08:29;;;;;;;6.40;2.47;;;;;;;19.72;100.00;99954.88;5053728;28;20173;-60
2023/07/20 06:10:54;;;;;;;6.27;2.40;;;;;;;19.67;100.00;99955.31;5050043;28;20264;-60
2023/07/20 06:13:19;;;;;;;5.53;2.40;;;;;;;19.80;100.00;99956.75;5049759;28;20245;-60
2023/07/20 06:15:45;;;;;;;4.70;2.33;;;;;;;19.80;100.00;99956.75;5052918;28;20185;-60
2023/07/20 06:18:10;;;;;;;3.47;2.23;;;;;;;19.87;100.00;99960.44;5053236;28;20633;-59
2023/07/20 06:20:36;;;;;;;3.23;2.27;;;;;;;20.08;100.00;99961.94;5047703;28;20717;-60
2023/07/20 06:23:01;;;;;;;3.33;2.47;;;;;;;20.18;100.00;99972.31;5051477;28;20554;-60
2023/07/20 06:25:26;;;;;;;7.73;2.30;;;;;;;20.44;99.84;99970.59;5053228;28;20189;-61
2023/07/20 06:27:51;;;;;;;7.03;2.70;;;;;;;20.64;97.77;99967.81;5053873;28;20603;-60
2023/07/20 06:30:17;;;;;;;3.50;2.20;;;;;;;20.89;95.36;99968.81;5045085;28;20177;-60
2023/07/20 06:32:42;;;;;;;4.53;2.23;;;;;;;21.02;95.56;99962.34;5064632;28;20701;-60
2023/07/20 06:35:08;;;;;;;5.20;2.40;;;;;;;21.36;92.74;99964.13;5053230;28;20213;-60
2023/07/20 06:37:34;;;;;;;4.13;2.03;;;;;;;21.30;92.07;99965.59;5053320;28;20182;-60
2023/07/20 06:39:59;;;;;;;4.83;2.33;;;;;;;21.69;91.59;99969.50;5053573;28;20221;-61
2023/07/20 06:42:24;;;;;;;2.33;2.03;;;;;;;22.20;88.99;99974.66;5023606;28;20229;-60
2023/07/20 06:44:49;;;;;;;2.27;2.07;;;;;;;23.24;81.06;99971.50;5046041;28;20182;-60
2023/07/20 06:47:15;;;;;;;4.40;2.47;;;;;;;23.93;73.35;99973.47;5053430;28;20177;-60
2023/07/20 06:49:40;;;;;;;4.53;2.20;;;;;;;25.22;64.71;99973.47;5053413;28;20178;-59
2023/07/20 06:52:06;;;;;;;4.20;2.45;;;;;;;25.09;63.64;99974.13;5056311;28;20691;-60
2023/07/20 06:54:32;;;;;;;9.45;2.63;;;;;;;25.19;62.89;99976.44;5050935;28;20185;-60
2023/07/20 06:56:57;;;;;;;5.18;2.53;;;;;;;24.94;63.40;99976.75;5046863;28;20205;-60
2023/07/20 06:59:24;;;;;;;9.85;2.92;;;;;;;25.26;61.27;99984.44;5052676;28;20579;-61
2023/07/20 07:01:49;;;;;;;4.15;2.33;;;;;;;25.72;59.77;99978.94;5033960;28;20225;-61
2023/07/20 07:04:14;;;;;;;2.80;2.15;;;;;;;26.02;54.22;99986.72;5053632;28;20192;-61
2023/07/20 07:06:40;;;;;;;3.15;2.20;;;;;;;27.48;51.25;99989.84;5052403;28;20189;-60
2023/07/20 07:09:05;;;;;;;2.55;1.90;;;;;;;27.56;47.82;99984.38;5052398;28;20209;-60
2023/07/20 07:11:31;;;;;;;5.85;2.55;;;;;;;27.12;49.28;99985.59;5052181;28;20236;-61
2023/07/20 07:13:56;;;;;;;5.75;2.38;;;;;;;26.72;51.42;99983.50;5056792;28;20260;-62
2023/07/20 07:16:21;;;;;;;6.55;2.30;;;;;;;27.14;50.73;99984.38;5041951;28;20227;-61
2023/07/20 07:18:47;;;;;;;2.85;1.95;;;;;;;27.40;50.57;99988.19;5041142;28;20181;-61
2023/07/20 07:21:13;;;;;;;4.55;2.45;;;;;;;26.98;50.28;99985.53;5041891;28;20229;-62
2023/07/20 07:23:39;;;;;;;5.38;2.47;;;;;;;26.44;52.06;99991.41;5055614;28;20177;-60
2023/07/20 07:26:05;;;;;;;2.97;2.10;;;;;;;27.42;48.18;99991.44;5044285;28;20629;-60
2023/07/20 07:28:31;;;;;;;3.28;2.00;;;;;;;28.60;44.80;99987.56;5048556;28;20181;-61
2023/07/20 07:30:57;;;;;;;3.55;2.20;;;;;;;28.09;44.67;99994.28;5028735;28;20359;-61
2023/07/20 07:33:22;;;;;;;3.58;1.95;;;;;;;27.20;49.03;99996.81;5058010;28;20217;-61
2023/07/20 07:35:48;;;;;;;5.65;2.17;;;;;;;26.84;51.94;99994.34;5044756;28;20216;-60
2023/07/20 07:38:14;;;;;;;3.97;2.45;;;;;;;25.91;54.47;99992.50;5049347;28;20182;-61
2023/07/20 07:40:39;;;;;;;3.42;1.92;;;;;;;25.82;54.69;99997.06;5044929;28;20314;-60
2023/07/20 07:43:04;;;;;;;6.35;2.30;;;;;;;25.11;57.42;99994.97;5060115;28;20541;-60
2023/07/20 07:45:30;;;;;;;3.22;2.10;;;;;;;25.57;55.54;99991.34;5051270;28;20570;-60
2023/07/20 07:47:55;;;;;;;2.30;1.90;;;;;;;26.39;53.26;99998.03;5052124;28;20185;-60
2023/07/20 07:50:20;;;;;;;2.78;1.80;;;;;;;27.77;46.86;99987.88;5038314;28;20227;-60
2023/07/20 07:52:46;;;;;;;5.35;1.90;;;;;;;28.24;44.42;99986.16;5058805;28;20259;-60
2023/07/20 07:55:11;;;;;;;2.97;1.90;;;;;;;29.43;39.49;99990.66;5051249;28;20181;-61
2023/07/20 07:57:37;;;;;;;4.32;2.10;;;;;;;31.26;37.78;99991.69;5051703;28;20264;-60
2023/07/20 08:00:03;;;;;;;2.72;1.67;;;;;;;32.44;34.45;100000.03;5050428;28;20207;-62
2023/07/20 08:02:29;;;;;;;3.08;1.70;;;;;;;31.15;36.38;99999.38;5048809;28;20243;-60
2023/07/20 08:04:54;;;;;;;3.63;1.80;;;;;;;30.53;37.89;100002.03;5046524;28;20189;-61
2023/07/20 08:07:19;;;;;;;3.88;1.85;;;;;;;30.88;36.95;100002.28;5048669;28;20193;-61
2023/07/20 08:09:44;;;;;;;4.13;2.00;;;;;;;30.08;39.45;100001.13;5051399;28;20185;-61
2023/07/20 08:12:10;;;;;;;4.15;1.70;;;;;;;30.91;36.98;100001.84;5056588;28;20232;-61
2023/07/20 08:14:35;;;;;;;3.17;1.90;;;;;;;31.12;34.86;100002.44;5049407;28;20213;-60
2023/07/20 08:17:00;;;;;;;3.40;1.92;;;;;;;32.54;33.69;100003.97;5051634;28;20201;-61
2023/07/20 08:19:25;;;;;;;2.63;1.55;;;;;;;32.22;33.40;99999.00;5049886;28;20181;-62
2023/07/20 08:21:51;;;;;;;2.28;1.88;;;;;;;31.72;34.32;100003.59;5054415;28;20227;-61
2023/07/20 08:24:16;;;;;;;3.78;1.80;;;;;;;29.62;38.30;100000.34;5052234;28;20209;-61
2023/07/20 08:26:41;;;;;;;3.28;1.90;;;;;;;28.22;40.79;100003.25;5045284;28;20565;-59
2023/07/20 08:29:06;;;;;;;3.90;1.90;;;;;;;27.66;42.22;100000.69;5047631;28;20280;-59
2023/07/20 08:31:32;;;;;;;3.38;1.88;;;;;;;29.23;40.62;99999.47;5048545;28;20209;-60
2023/07/20 08:33:57;;;;;;;2.55;1.77;;;;;;;30.72;36.63;100000.22;5054957;28;20217;-62
2023/07/20 08:36:23;;;;;;;2.53;1.60;;;;;;;30.90;37.28;100002.06;5050662;28;20714;-60
2023/07/20 08:38:48;;;;;;;1.70;1.50;;;;;;;32.57;32.90;100001.66;5051180;28;20208;-61
2023/07/20 08:41:14;;;;;;;3.17;1.65;;;;;;;33.56;30.81;100007.19;5045643;28;20256;-61
2023/07/20 08:43:42;;;;;;;3.08;1.70;;;;;;;32.45;31.89;100006.16;5054564;28;20193;-61
2023/07/20 08:46:08;;;;;;;2.65;1.88;;;;;;;28.89;37.68;99993.47;5050840;28;20213;-61
2023/07/20 08:48:34;;;;;;;2.38;1.70;;;;;;;28.32;40.62;99993.88;5036500;28;20896;-59
2023/07/20 08:51:01;;;;;;;5.43;1.95;;;;;;;30.46;36.50;99995.94;5037868;28;20236;-60
2023/07/20 08:53:27;;;;;;;2.03;1.40;;;;;;;32.05;33.41;100004.94;5057779;28;20268;-60
2023/07/20 08:55:53;;;;;;;3.25;1.60;;;;;;;31.81;33.10;99996.91;5045359;28;20204;-60
2023/07/20 08:58:18;;;;;;;4.75;1.63;;;;;;;30.17;36.56;99999.00;5054839;28;20208;-60
2023/07/20 09:00:44;;;;;;;3.17;1.92;;;;;;;28.92;39.21;99990.38;5048467;28;20240;-60
2023/07/20 09:03:11;;;;;;;3.58;1.80;;;;;;;29.97;37.28;99990.38;5057780;28;20235;-59
2023/07/20 09:05:36;;;;;;;3.38;1.98;;;;;;;30.94;35.41;99997.94;5053356;28;20188;-60
2023/07/20 09:08:05;;;;;;;4.28;2.00;;;;;;;29.67;37.12;99993.59;5051969;28;20185;-59
2023/07/20 09:10:30;;;;;;;4.40;1.73;;;;;;;28.60;38.70;99987.56;5048057;28;20232;-59
2023/07/20 09:12:55;;;;;;;2.95;1.60;;;;;;;27.48;42.57;99989.84;5060105;28;20703;-59
2023/07/20 09:15:22;;;;;;;3.38;1.88;;;;;;;27.92;41.83;99987.72;5054574;28;20181;-60
2023/07/20 09:17:49;;;;;;;3.47;2.13;;;;;;;28.39;39.39;99985.94;5053249;28;20177;-60
2023/07/20 09:20:15;;;;;;;2.60;2.00;;;;;;;28.58;41.22;99981.69;5045838;28;20540;-61
2023/07/20 09:22:41;;;;;;;2.45;1.50;;;;;;;29.82;39.52;99983.53;5057677;28;20640;-60
2023/07/20 09:25:11;;;;;;;4.45;1.80;;;;;;;30.83;36.10;99990.72;5043557;28;20194;-61
2023/07/20 09:27:42;;;;;;;4.03;1.95;;;;;;;32.43;32.94;99989.63;5053084;28;20243;-60
2023/07/20 09:30:09;;;;;;;3.35;1.58;;;;;;;31.62;33.44;99984.66;5038618;28;20182;-61
2023/07/20 09:32:43;;;;;;;2.90;1.75;;;;;;;29.23;36.85;99986.22;5063144;28;20323;-60
2023/07/20 09:35:16;;;;;;;3.63;1.88;;;;;;;28.49;39.02;99985.53;5047352;28;20188;-60
2023/07/20 09:38:01;;;;;;;4.70;2.20;;;;;;;27.74;40.87;99983.81;5040732;28;20185;-59
2023/07/20 09:40:26;;;;;;;3.92;1.85;;;;;;;28.11;41.74;99984.31;5042476;28;20224;-60
2023/07/20 09:42:59;;;;;;;2.30;1.95;;;;;;;27.01;43.74;99985.13;5055831;28;20186;-59
2023/07/20 09:45:33;;;;;;;3.15;2.05;;;;;;;26.57;47.00;99981.78;5051270;28;20183;-59
2023/07/20 09:48:09;;;;;;;4.20;1.83;;;;;;;25.58;50.98;99975.34;5054480;28;20272;-59
2023/07/20 09:50:41;;;;;;;4.32;1.92;;;;;;;25.12;53.99;99971.09;5047842;28;20722;-59
2023/07/20 09:53:07;;;;;;;5.13;2.00;;;;;;;25.09;54.89;99973.28;5058868;28;20197;-60
2023/07/20 09:55:32;;;;;;;1.92;1.73;;;;;;;25.05;56.18;99975.47;5055911;28;20196;-59
2023/07/20 09:57:59;;;;;;;3.97;1.98;;;;;;;24.58;60.44;99974.75;5053799;28;20557;-58
2023/07/20 10:00:24;;;;;;;3.15;1.90;;;;;;;24.11;64.02;99981.06;5045326;28;20228;-61
2023/07/20 10:02:52;;;;;;;2.00;1.80;;;;;;;23.79;67.91;99970.56;5063948;28;20698;-59
2023/07/20 10:05:18;;;;;;;2.72;1.90;;;;;;;23.76;66.05;99970.91;5050550;28;20291;-59
2023/07/20 10:07:47;;;;;;;4.63;2.50;;;;;;;23.93;65.84;99976.91;5049566;28;20221;-60
2023/07/20 10:10:14;;;;;;;3.87;1.90;;;;;;;23.92;62.56;99967.38;5043011;28;20182;-60
2023/07/20 10:12:41;;;;;;;3.93;1.93;;;;;;;24.20;62.13;99964.25;5063126;28;20830;-59
2023/07/20 10:15:13;;;;;;;4.27;1.90;;;;;;;25.19;59.61;99960.66;5052206;28;20208;-60
2023/07/20 10:17:49;;;;;;;8.17;2.40;;;;;;;24.94;54.79;99960.97;5054251;28;20220;-61
2023/07/20 10:20:16;;;;;;;3.03;1.97;;;;;;;24.78;59.15;99951.44;5045189;28;20637;-60
2023/07/20 10:22:45;;;;;;;3.93;1.77;;;;;;;24.98;58.56;99948.25;5052669;28;20196;-60
2023/07/20 10:25:11;;;;;;;3.58;2.22;;;;;;;25.07;56.94;99951.63;5039404;28;20189;-61
2023/07/20 10:27:36;;;;;;;7.47;2.65;;;;;;;25.51;56.18;99953.38;5041783;28;20190;-60
2023/07/20 10:30:03;;;;;;;3.30;2.22;;;;;;;25.26;58.03;99955.50;5045739;28;20182;-60
2023/07/20 10:32:30;;;;;;;3.03;2.08;;;;;;;25.59;53.37;99961.19;5038849;28;20216;-60
2023/07/20 10:34:56;;;;;;;9.32;2.40;;;;;;;25.04;58.97;99954.59;5053113;28;20196;-59
2023/07/20 10:37:50;;;;;;;3.15;1.90;;;;;;;25.04;56.72;99941.44;5062380;28;20198;-60
2023/07/20 10:40:30;;;;;;;3.72;2.00;;;;;;;24.76;59.97;99934.19;5040608;28;20178;-60
2023/07/20 10:43:00;;;;;;;4.50;2.00;;;;;;;24.62;57.17;99935.78;5062513;28;20177;-59
2023/07/20 10:45:38;;;;;;;8.00;2.35;;;;;;;24.64;56.49;99931.16;5052740;28;20170;-58
2023/07/20 10:48:05;;;;;;;5.05;1.92;;;;;;;25.33;55.37;99929.25;5053253;28;20267;-57
2023/07/20 10:50:32;;;;;;;7.60;2.30;;;;;;;25.64;52.93;99930.81;5038234;28;20625;-58
2023/07/20 10:53:10;;;;;;;4.38;1.80;;;;;;;25.45;56.96;99933.06;5052747;28;20312;-58
2023/07/20 10:55:35;;;;;;;8.10;2.22;;;;;;;25.29;56.81;99927.00;5052609;28;20275;-56
2023/07/20 10:58:11;;;;;;;5.68;2.08;;;;;;;24.87;60.01;99927.66;5047548;28;20645;-57
2023/07/20 11:00:53;;;;;;;4.32;2.20;;;;;;;24.91;56.17;99921.06;5023557;28;20228;-57
2023/07/20 11:03:30;;;;;;;4.40;2.13;;;;;;;25.07;58.96;99917.41;5056733;28;20173;-57
2023/07/20 11:05:56;;;;;;;2.65;2.08;;;;;;;25.88;56.57;99919.13;5052564;28;20181;-56
2023/07/20 11:08:48;;;;;;;6.18;1.90;;;;;;;26.51;49.03;99918.44;5052600;28;20213;-57
2023/07/20 11:11:27;;;;;;;3.22;1.77;;;;;;;25.86;48.16;99921.94;5036903;28;20631;-58
2023/07/20 11:13:58;;;;;;;2.50;1.80;;;;;;;25.07;51.64;99922.69;5053647;28;20312;-57
2023/07/20 11:16:34;;;;;;;2.97;1.80;;;;;;;25.14;49.54;99927.00;5050169;28;20315;-58
2023/07/20 11:18:59;;;;;;;4.95;2.20;;;;;;;24.95;52.97;99915.22;5055746;28;20195;-58
2023/07/20 11:21:25;;;;;;;3.65;1.88;;;;;;;25.05;53.57;99908.88;5050941;28;20228;-57
2023/07/20 11:23:52;;;;;;;3.53;1.95;;;;;;;24.40;52.25;99916.41;5045469;28;20638;-58
2023/07/20 11:26:19;;;;;;;2.53;1.88;;;;;;;24.64;52.19;99912.75;5040200;28;20188;-57
2023/07/20 11:28:49;;;;;;;2.75;1.90;;;;;;;24.38;58.22;99900.84;5034674;28;20276;-57